sensor_id;sensor_type;location;lat;lon;timestamp;P1;durP1;ratioP1;P2;durP2;ratioP2
55913;SDS011;58179;48.776;9.124;2023-12-14T00:01:31;2.63;;;2.28;;
55913;SDS011;58179;48.776;9.124;2023-12-14T00:03:57;2.75;;;2.38;;
55913;SDS011;58179;48.776;9.124;2023-12-14T00:06:23;2.90;;;2.40;;
55913;SDS011;58179;48.776;9.124;2023-12-14T00:08:49;5.40;;;3.30;;
55913;SDS011;58179;48.776;9.124;2023-12-14T00:11:15;3.95;;;3.00;;
55913;SDS011;58179;48.776;9.124;2023-12-14T00:13:41;2.83;;;2.53;;
55913;SDS011;58179;48.776;9.124;2023-12-14T00:16:08;3.30;;;2.78;;
55913;SDS011;58179;48.776;9.124;2023-12-14T00:18:35;4.63;;;3.10;;
55913;SDS011;58179;48.776;9.124;2023-12-14T00:21:02;3.38;;;2.70;;
55913;SDS011;58179;48.776;9.124;2023-12-14T00:23:29;3.28;;;2.55;;
55913;SDS011;58179;48.776;9.124;2023-12-14T00:25:55;3.25;;;2.60;;
55913;SDS011;58179;48.776;9.124;2023-12-14T00:28:22;3.80;;;2.75;;
55913;SDS011;58179;48.776;9.124;2023-12-14T00:30:48;3.20;;;2.47;;
55913;SDS011;58179;48.776;9.124;2023-12-14T00:33:14;3.38;;;2.40;;
55913;SDS011;58179;48.776;9.124;2023-12-14T00:35:41;2.70;;;2.40;;
55913;SDS011;58179;48.776;9.124;2023-12-14T00:38:08;3.15;;;2.40;;
55913;SDS011;58179;48.776;9.124;2023-12-14T00:40:34;3.17;;;2.67;;
55913;SDS011;58179;48.776;9.124;2023-12-14T00:43:00;3.50;;;2.42;;
55913;SDS011;58179;48.776;9.124;2023-12-14T00:45:26;5.47;;;3.55;;
55913;SDS011;58179;48.776;9.124;2023-12-14T00:47:52;9.38;;;5.30;;
55913;SDS011;58179;48.776;9.124;2023-12-14T00:50:18;8.35;;;4.50;;
55913;SDS011;58179;48.776;9.124;2023-12-14T00:52:46;8.50;;;4.72;;
55913;SDS011;58179;48.776;9.124;2023-12-14T00:55:12;8.68;;;4.63;;
55913;SDS011;58179;48.776;9.124;2023-12-14T00:57:38;8.60;;;4.20;;
55913;SDS011;58179;48.776;9.124;2023-12-14T01:00:05;8.63;;;5.00;;
55913;SDS011;58179;48.776;9.124;2023-12-14T01:02:32;14.50;;;6.15;;
55913;SDS011;58179;48.776;9.124;2023-12-14T01:04:58;14.63;;;6.90;;
55913;SDS011;58179;48.776;9.124;2023-12-14T01:07:24;12.60;;;6.50;;
55913;SDS011;58179;48.776;9.124;2023-12-14T01:09:51;15.35;;;6.88;;
55913;SDS011;58179;48.776;9.124;2023-12-14T01:12:18;16.13;;;6.77;;
55913;SDS011;58179;48.776;9.124;2023-12-14T01:14:44;14.77;;;7.18;;
55913;SDS011;58179;48.776;9.124;2023-12-14T01:17:10;14.10;;;7.00;;
55913;SDS011;58179;48.776;9.124;2023-12-14T01:19:39;9.25;;;5.07;;
55913;SDS011;58179;48.776;9.124;2023-12-14T01:22:06;9.52;;;5.10;;
55913;SDS011;58179;48.776;9.124;2023-12-14T01:24:32;12.30;;;6.30;;
55913;SDS011;58179;48.776;9.124;2023-12-14T01:26:59;9.43;;;5.30;;
55913;SDS011;58179;48.776;9.124;2023-12-14T01:29:25;11.43;;;5.35;;
55913;SDS011;58179;48.776;9.124;2023-12-14T01:31:52;7.88;;;5.07;;
55913;SDS011;58179;48.776;9.124;2023-12-14T01:34:18;8.23;;;5.32;;
55913;SDS011;58179;48.776;9.124;2023-12-14T01:36:44;7.03;;;4.63;;
55913;SDS011;58179;48.776;9.124;2023-12-14T01:39:10;6.68;;;4.13;;
55913;SDS011;58179;48.776;9.124;2023-12-14T01:41:36;5.78;;;3.80;;
55913;SDS011;58179;48.776;9.124;2023-12-14T01:44:04;6.22;;;3.97;;
55913;SDS011;58179;48.776;9.124;2023-12-14T01:46:30;4.55;;;3.60;;
55913;SDS011;58179;48.776;9.124;2023-12-14T01:48:56;6.82;;;3.85;;
55913;SDS011;58179;48.776;9.124;2023-12-14T01:51:23;6.05;;;3.63;;
55913;SDS011;58179;48.776;9.124;2023-12-14T01:53:49;7.43;;;4.82;;
55913;SDS011;58179;48.776;9.124;2023-12-14T01:56:15;8.15;;;5.00;;
55913;SDS011;58179;48.776;9.124;2023-12-14T01:58:41;7.35;;;4.80;;
55913;SDS011;58179;48.776;9.124;2023-12-14T02:01:10;7.10;;;4.70;;
55913;SDS011;58179;48.776;9.124;2023-12-14T02:03:44;9.38;;;5.30;;
55913;SDS011;58179;48.776;9.124;2023-12-14T02:06:11;14.75;;;5.50;;
55913;SDS011;58179;48.776;9.124;2023-12-14T02:08:37;10.48;;;5.50;;
55913;SDS011;58179;48.776;9.124;2023-12-14T02:11:03;9.93;;;5.30;;
55913;SDS011;58179;48.776;9.124;2023-12-14T02:13:29;14.32;;;6.72;;
55913;SDS011;58179;48.776;9.124;2023-12-14T02:15:56;13.30;;;6.13;;
55913;SDS011;58179;48.776;9.124;2023-12-14T02:18:23;10.43;;;5.72;;
55913;SDS011;58179;48.776;9.124;2023-12-14T02:20:49;9.38;;;5.40;;
55913;SDS011;58179;48.776;9.124;2023-12-14T02:23:17;7.82;;;4.82;;
55913;SDS011;58179;48.776;9.124;2023-12-14T02:25:43;8.40;;;4.30;;
55913;SDS011;58179;48.776;9.124;2023-12-14T02:28:09;13.82;;;6.53;;
55913;SDS011;58179;48.776;9.124;2023-12-14T02:30:35;8.90;;;5.32;;
55913;SDS011;58179;48.776;9.124;2023-12-14T02:33:01;8.57;;;5.75;;
55913;SDS011;58179;48.776;9.124;2023-12-14T02:35:27;11.40;;;6.35;;
55913;SDS011;58179;48.776;9.124;2023-12-14T02:37:53;10.15;;;5.60;;
55913;SDS011;58179;48.776;9.124;2023-12-14T02:40:21;7.28;;;4.93;;
55913;SDS011;58179;48.776;9.124;2023-12-14T02:42:47;6.50;;;4.72;;
55913;SDS011;58179;48.776;9.124;2023-12-14T02:45:13;12.27;;;6.20;;
55913;SDS011;58179;48.776;9.124;2023-12-14T02:47:40;9.48;;;5.43;;
55913;SDS011;58179;48.776;9.124;2023-12-14T02:50:06;8.68;;;4.47;;
55913;SDS011;58179;48.776;9.124;2023-12-14T02:52:33;8.10;;;4.93;;
55913;SDS011;58179;48.776;9.124;2023-12-14T02:54:59;10.82;;;5.07;;
55913;SDS011;58179;48.776;9.124;2023-12-14T02:57:26;7.03;;;4.68;;
55913;SDS011;58179;48.776;9.124;2023-12-14T02:59:52;9.95;;;4.95;;
55913;SDS011;58179;48.776;9.124;2023-12-14T03:02:19;14.68;;;7.00;;
55913;SDS011;58179;48.776;9.124;2023-12-14T03:04:45;13.85;;;6.93;;
55913;SDS011;58179;48.776;9.124;2023-12-14T03:07:11;11.70;;;5.97;;
55913;SDS011;58179;48.776;9.124;2023-12-14T03:09:38;8.18;;;5.47;;
55913;SDS011;58179;48.776;9.124;2023-12-14T03:12:09;9.50;;;5.47;;
55913;SDS011;58179;48.776;9.124;2023-12-14T03:14:37;12.35;;;5.30;;
55913;SDS011;58179;48.776;9.124;2023-12-14T03:17:03;13.75;;;6.57;;
55913;SDS011;58179;48.776;9.124;2023-12-14T03:19:31;10.75;;;6.00;;
55913;SDS011;58179;48.776;9.124;2023-12-14T03:21:57;11.63;;;5.90;;
55913;SDS011;58179;48.776;9.124;2023-12-14T03:24:23;14.07;;;6.30;;
55913;SDS011;58179;48.776;9.124;2023-12-14T03:26:49;10.95;;;6.07;;
55913;SDS011;58179;48.776;9.124;2023-12-14T03:29:16;10.68;;;6.13;;
55913;SDS011;58179;48.776;9.124;2023-12-14T03:31:45;9.67;;;5.40;;
55913;SDS011;58179;48.776;9.124;2023-12-14T03:34:11;12.38;;;5.93;;
55913;SDS011;58179;48.776;9.124;2023-12-14T03:36:37;8.82;;;5.13;;
55913;SDS011;58179;48.776;9.124;2023-12-14T03:39:03;7.00;;;4.40;;
55913;SDS011;58179;48.776;9.124;2023-12-14T03:41:30;6.90;;;4.13;;
55913;SDS011;58179;48.776;9.124;2023-12-14T03:43:56;9.18;;;5.10;;
55913;SDS011;58179;48.776;9.124;2023-12-14T03:46:23;8.73;;;4.72;;
55913;SDS011;58179;48.776;9.124;2023-12-14T03:48:50;7.00;;;4.22;;
55913;SDS011;58179;48.776;9.124;2023-12-14T03:51:17;7.20;;;4.22;;
55913;SDS011;58179;48.776;9.124;2023-12-14T03:53:44;4.78;;;3.60;;
55913;SDS011;58179;48.776;9.124;2023-12-14T03:56:10;5.45;;;3.40;;
55913;SDS011;58179;48.776;9.124;2023-12-14T03:58:36;4.82;;;3.22;;
55913;SDS011;58179;48.776;9.124;2023-12-14T04:01:02;3.88;;;2.88;;
55913;SDS011;58179;48.776;9.124;2023-12-14T04:03:29;4.35;;;2.90;;
55913;SDS011;58179;48.776;9.124;2023-12-14T04:05:56;4.20;;;3.00;;
55913;SDS011;58179;48.776;9.124;2023-12-14T04:08:23;3.50;;;2.80;;
55913;SDS011;58179;48.776;9.124;2023-12-14T04:10:49;4.90;;;3.20;;
55913;SDS011;58179;48.776;9.124;2023-12-14T04:13:15;4.65;;;3.20;;
55913;SDS011;58179;48.776;9.124;2023-12-14T04:15:41;6.00;;;3.13;;
55913;SDS011;58179;48.776;9.124;2023-12-14T04:18:07;4.35;;;3.20;;
55913;SDS011;58179;48.776;9.124;2023-12-14T04:20:34;4.97;;;2.75;;
55913;SDS011;58179;48.776;9.124;2023-12-14T04:23:01;4.82;;;2.90;;
55913;SDS011;58179;48.776;9.124;2023-12-14T04:25:27;7.30;;;4.20;;
55913;SDS011;58179;48.776;9.124;2023-12-14T04:27:53;5.80;;;3.38;;
55913;SDS011;58179;48.776;9.124;2023-12-14T04:30:19;5.75;;;3.80;;
55913;SDS011;58179;48.776;9.124;2023-12-14T04:32:46;6.63;;;3.92;;
55913;SDS011;58179;48.776;9.124;2023-12-14T04:35:12;5.97;;;3.58;;
55913;SDS011;58179;48.776;9.124;2023-12-14T04:37:38;7.22;;;3.92;;
55913;SDS011;58179;48.776;9.124;2023-12-14T04:40:07;7.68;;;4.18;;
55913;SDS011;58179;48.776;9.124;2023-12-14T04:42:34;7.00;;;4.15;;
55913;SDS011;58179;48.776;9.124;2023-12-14T04:45:00;7.20;;;3.63;;
55913;SDS011;58179;48.776;9.124;2023-12-14T04:47:27;6.00;;;3.80;;
55913;SDS011;58179;48.776;9.124;2023-12-14T04:49:53;8.75;;;3.85;;
55913;SDS011;58179;48.776;9.124;2023-12-14T04:52:19;5.68;;;3.83;;
55913;SDS011;58179;48.776;9.124;2023-12-14T04:54:46;6.25;;;3.60;;
55913;SDS011;58179;48.776;9.124;2023-12-14T04:57:13;14.33;;;5.90;;
55913;SDS011;58179;48.776;9.124;2023-12-14T04:59:40;10.15;;;5.05;;
55913;SDS011;58179;48.776;9.124;2023-12-14T05:02:07;12.97;;;5.40;;
55913;SDS011;58179;48.776;9.124;2023-12-14T05:04:33;11.05;;;5.93;;
55913;SDS011;58179;48.776;9.124;2023-12-14T05:07:00;14.93;;;6.28;;
55913;SDS011;58179;48.776;9.124;2023-12-14T05:09:26;14.53;;;6.93;;
55913;SDS011;58179;48.776;9.124;2023-12-14T05:11:53;17.83;;;8.00;;
55913;SDS011;58179;48.776;9.124;2023-12-14T05:14:20;19.83;;;8.25;;
55913;SDS011;58179;48.776;9.124;2023-12-14T05:16:46;15.90;;;7.57;;
55913;SDS011;58179;48.776;9.124;2023-12-14T05:19:13;18.40;;;8.50;;
55913;SDS011;58179;48.776;9.124;2023-12-14T05:21:39;21.00;;;8.57;;
55913;SDS011;58179;48.776;9.124;2023-12-14T05:24:05;16.63;;;7.53;;
55913;SDS011;58179;48.776;9.124;2023-12-14T05:26:31;20.88;;;8.65;;
55913;SDS011;58179;48.776;9.124;2023-12-14T05:28:58;28.45;;;10.48;;
55913;SDS011;58179;48.776;9.124;2023-12-14T05:31:25;20.05;;;7.88;;
55913;SDS011;58179;48.776;9.124;2023-12-14T05:33:51;26.95;;;8.82;;
55913;SDS011;58179;48.776;9.124;2023-12-14T05:36:17;19.05;;;8.18;;
55913;SDS011;58179;48.776;9.124;2023-12-14T05:38:44;24.83;;;10.02;;
55913;SDS011;58179;48.776;9.124;2023-12-14T05:41:10;23.67;;;8.75;;
55913;SDS011;58179;48.776;9.124;2023-12-14T05:43:36;20.83;;;8.82;;
55913;SDS011;58179;48.776;9.124;2023-12-14T05:46:02;23.08;;;8.82;;
55913;SDS011;58179;48.776;9.124;2023-12-14T05:48:30;26.23;;;9.38;;
55913;SDS011;58179;48.776;9.124;2023-12-14T05:50:56;26.65;;;10.23;;
55913;SDS011;58179;48.776;9.124;2023-12-14T05:53:22;25.40;;;10.18;;
55913;SDS011;58179;48.776;9.124;2023-12-14T05:55:49;24.80;;;9.95;;
55913;SDS011;58179;48.776;9.124;2023-12-14T05:58:15;22.60;;;9.73;;
55913;SDS011;58179;48.776;9.124;2023-12-14T06:00:41;21.13;;;9.20;;
55913;SDS011;58179;48.776;9.124;2023-12-14T06:03:07;24.33;;;9.40;;
55913;SDS011;58179;48.776;9.124;2023-12-14T06:05:35;29.10;;;10.88;;
55913;SDS011;58179;48.776;9.124;2023-12-14T06:08:01;23.83;;;10.67;;
55913;SDS011;58179;48.776;9.124;2023-12-14T06:10:27;33.97;;;12.32;;
55913;SDS011;58179;48.776;9.124;2023-12-14T06:12:54;28.02;;;10.82;;
55913;SDS011;58179;48.776;9.124;2023-12-14T06:15:20;28.77;;;11.02;;
55913;SDS011;58179;48.776;9.124;2023-12-14T06:17:46;25.50;;;10.15;;
55913;SDS011;58179;48.776;9.124;2023-12-14T06:20:13;26.10;;;10.60;;
55913;SDS011;58179;48.776;9.124;2023-12-14T06:22:40;24.70;;;9.77;;
55913;SDS011;58179;48.776;9.124;2023-12-14T06:25:07;29.58;;;10.23;;
55913;SDS011;58179;48.776;9.124;2023-12-14T06:27:33;28.42;;;10.93;;
55913;SDS011;58179;48.776;9.124;2023-12-14T06:29:59;29.52;;;11.43;;
55913;SDS011;58179;48.776;9.124;2023-12-14T06:32:25;26.77;;;10.57;;
55913;SDS011;58179;48.776;9.124;2023-12-14T06:34:52;32.33;;;12.07;;
55913;SDS011;58179;48.776;9.124;2023-12-14T06:37:18;34.17;;;12.20;;
55913;SDS011;58179;48.776;9.124;2023-12-14T06:39:46;39.42;;;13.98;;
55913;SDS011;58179;48.776;9.124;2023-12-14T06:42:12;36.72;;;13.68;;
55913;SDS011;58179;48.776;9.124;2023-12-14T06:44:38;37.85;;;13.25;;
55913;SDS011;58179;48.776;9.124;2023-12-14T06:47:05;37.25;;;13.05;;
55913;SDS011;58179;48.776;9.124;2023-12-14T06:49:31;38.73;;;13.43;;
55913;SDS011;58179;48.776;9.124;2023-12-14T06:51:57;40.40;;;14.02;;
55913;SDS011;58179;48.776;9.124;2023-12-14T06:54:23;33.08;;;11.90;;
55913;SDS011;58179;48.776;9.124;2023-12-14T06:56:51;29.70;;;11.35;;
55913;SDS011;58179;48.776;9.124;2023-12-14T06:59:17;29.30;;;10.38;;
55913;SDS011;58179;48.776;9.124;2023-12-14T07:01:43;44.15;;;13.98;;
55913;SDS011;58179;48.776;9.124;2023-12-14T07:04:09;39.90;;;14.30;;
55913;SDS011;58179;48.776;9.124;2023-12-14T07:06:36;49.13;;;16.35;;
55913;SDS011;58179;48.776;9.124;2023-12-14T07:09:02;38.90;;;13.57;;
55913;SDS011;58179;48.776;9.124;2023-12-14T07:11:28;35.28;;;12.38;;
55913;SDS011;58179;48.776;9.124;2023-12-14T07:13:55;30.45;;;11.45;;
55913;SDS011;58179;48.776;9.124;2023-12-14T07:16:22;29.73;;;10.73;;
55913;SDS011;58179;48.776;9.124;2023-12-14T07:18:48;24.75;;;9.32;;
55913;SDS011;58179;48.776;9.124;2023-12-14T07:21:14;24.10;;;9.07;;
55913;SDS011;58179;48.776;9.124;2023-12-14T07:23:40;25.35;;;9.93;;
55913;SDS011;58179;48.776;9.124;2023-12-14T07:26:06;26.85;;;9.75;;
55913;SDS011;58179;48.776;9.124;2023-12-14T07:28:33;47.45;;;15.45;;
55913;SDS011;58179;48.776;9.124;2023-12-14T07:31:00;45.22;;;15.35;;
55913;SDS011;58179;48.776;9.124;2023-12-14T07:33:26;74.32;;;16.40;;
55913;SDS011;58179;48.776;9.124;2023-12-14T07:35:53;65.57;;;16.27;;
55913;SDS011;58179;48.776;9.124;2023-12-14T07:38:19;46.60;;;15.00;;
55913;SDS011;58179;48.776;9.124;2023-12-14T07:40:45;40.45;;;12.95;;
55913;SDS011;58179;48.776;9.124;2023-12-14T07:43:12;34.70;;;11.32;;
55913;SDS011;58179;48.776;9.124;2023-12-14T07:45:38;33.72;;;11.90;;
55913;SDS011;58179;48.776;9.124;2023-12-14T07:48:05;40.75;;;14.63;;
55913;SDS011;58179;48.776;9.124;2023-12-14T07:50:31;45.17;;;15.77;;
55913;SDS011;58179;48.776;9.124;2023-12-14T07:52:58;39.75;;;13.23;;
55913;SDS011;58179;48.776;9.124;2023-12-14T07:55:24;43.17;;;14.70;;
55913;SDS011;58179;48.776;9.124;2023-12-14T07:57:50;57.40;;;18.15;;
55913;SDS011;58179;48.776;9.124;2023-12-14T08:00:16;46.30;;;16.67;;
55913;SDS011;58179;48.776;9.124;2023-12-14T08:02:43;41.42;;;14.65;;
55913;SDS011;58179;48.776;9.124;2023-12-14T08:05:10;43.33;;;15.27;;
55913;SDS011;58179;48.776;9.124;2023-12-14T08:07:36;35.92;;;13.48;;
55913;SDS011;58179;48.776;9.124;2023-12-14T08:10:03;37.03;;;14.18;;
55913;SDS011;58179;48.776;9.124;2023-12-14T08:12:29;44.65;;;16.08;;
55913;SDS011;58179;48.776;9.124;2023-12-14T08:14:55;38.28;;;14.10;;
55913;SDS011;58179;48.776;9.124;2023-12-14T08:17:22;53.97;;;17.65;;
55913;SDS011;58179;48.776;9.124;2023-12-14T08:19:48;44.83;;;16.35;;
55913;SDS011;58179;48.776;9.124;2023-12-14T08:22:15;58.00;;;19.33;;
55913;SDS011;58179;48.776;9.124;2023-12-14T08:24:42;61.05;;;19.40;;
55913;SDS011;58179;48.776;9.124;2023-12-14T08:27:08;46.92;;;16.02;;
55913;SDS011;58179;48.776;9.124;2023-12-14T08:29:34;33.17;;;12.65;;
55913;SDS011;58179;48.776;9.124;2023-12-14T08:32:00;35.58;;;12.93;;
55913;SDS011;58179;48.776;9.124;2023-12-14T08:34:26;59.97;;;19.33;;
55913;SDS011;58179;48.776;9.124;2023-12-14T08:36:53;66.10;;;21.92;;
55913;SDS011;58179;48.776;9.124;2023-12-14T08:39:22;50.85;;;16.98;;
55913;SDS011;58179;48.776;9.124;2023-12-14T08:41:48;61.22;;;19.80;;
55913;SDS011;58179;48.776;9.124;2023-12-14T08:44:14;61.80;;;20.92;;
55913;SDS011;58179;48.776;9.124;2023-12-14T08:46:41;42.07;;;16.73;;
55913;SDS011;58179;48.776;9.124;2023-12-14T08:49:08;39.85;;;14.52;;
55913;SDS011;58179;48.776;9.124;2023-12-14T08:51:35;27.92;;;11.68;;
55913;SDS011;58179;48.776;9.124;2023-12-14T08:54:01;24.55;;;10.57;;
55913;SDS011;58179;48.776;9.124;2023-12-14T08:56:28;34.40;;;13.57;;
55913;SDS011;58179;48.776;9.124;2023-12-14T08:58:55;33.42;;;12.90;;
55913;SDS011;58179;48.776;9.124;2023-12-14T09:01:22;28.38;;;12.57;;
55913;SDS011;58179;48.776;9.124;2023-12-14T09:03:48;36.67;;;14.82;;
55913;SDS011;58179;48.776;9.124;2023-12-14T09:06:15;40.38;;;15.65;;
55913;SDS011;58179;48.776;9.124;2023-12-14T09:08:43;52.43;;;18.13;;
55913;SDS011;58179;48.776;9.124;2023-12-14T09:11:10;51.85;;;18.38;;
55913;SDS011;58179;48.776;9.124;2023-12-14T09:13:37;44.03;;;16.75;;
55913;SDS011;58179;48.776;9.124;2023-12-14T09:16:04;39.55;;;14.77;;
55913;SDS011;58179;48.776;9.124;2023-12-14T09:18:30;28.70;;;12.68;;
55913;SDS011;58179;48.776;9.124;2023-12-14T09:20:57;40.58;;;15.55;;
55913;SDS011;58179;48.776;9.124;2023-12-14T09:23:23;46.22;;;17.15;;
55913;SDS011;58179;48.776;9.124;2023-12-14T09:25:49;46.05;;;17.80;;
55913;SDS011;58179;48.776;9.124;2023-12-14T09:28:15;57.58;;;18.58;;
55913;SDS011;58179;48.776;9.124;2023-12-14T09:30:43;45.83;;;17.02;;
55913;SDS011;58179;48.776;9.124;2023-12-14T09:33:09;37.22;;;15.10;;
55913;SDS011;58179;48.776;9.124;2023-12-14T09:35:35;31.25;;;13.80;;
55913;SDS011;58179;48.776;9.124;2023-12-14T09:38:02;28.70;;;12.07;;
55913;SDS011;58179;48.776;9.124;2023-12-14T09:40:28;33.63;;;12.80;;
55913;SDS011;58179;48.776;9.124;2023-12-14T09:42:54;24.80;;;10.88;;
55913;SDS011;58179;48.776;9.124;2023-12-14T09:45:22;35.08;;;13.88;;
55913;SDS011;58179;48.776;9.124;2023-12-14T09:47:54;23.43;;;10.50;;
55913;SDS011;58179;48.776;9.124;2023-12-14T09:50:20;29.65;;;12.68;;
55913;SDS011;58179;48.776;9.124;2023-12-14T09:52:48;33.08;;;13.85;;
55913;SDS011;58179;48.776;9.124;2023-12-14T09:55:14;29.33;;;12.18;;
55913;SDS011;58179;48.776;9.124;2023-12-14T09:57:40;28.20;;;11.70;;
55913;SDS011;58179;48.776;9.124;2023-12-14T10:00:07;27.25;;;11.63;;
55913;SDS011;58179;48.776;9.124;2023-12-14T10:02:39;25.98;;;10.95;;
55913;SDS011;58179;48.776;9.124;2023-12-14T10:05:09;26.23;;;12.10;;
55913;SDS011;58179;48.776;9.124;2023-12-14T10:07:38;42.30;;;14.68;;
55913;SDS011;58179;48.776;9.124;2023-12-14T10:10:10;40.40;;;15.87;;
55913;SDS011;58179;48.776;9.124;2023-12-14T10:12:52;49.80;;;19.35;;
55913;SDS011;58179;48.776;9.124;2023-12-14T10:15:19;31.25;;;14.18;;
55913;SDS011;58179;48.776;9.124;2023-12-14T10:17:50;25.73;;;12.68;;
55913;SDS011;58179;48.776;9.124;2023-12-14T10:20:20;34.53;;;14.93;;
55913;SDS011;58179;48.776;9.124;2023-12-14T10:22:47;26.33;;;13.10;;
55913;SDS011;58179;48.776;9.124;2023-12-14T10:25:14;27.73;;;12.98;;
55913;SDS011;58179;48.776;9.124;2023-12-14T10:27:42;21.02;;;10.90;;
55913;SDS011;58179;48.776;9.124;2023-12-14T10:30:12;28.13;;;13.30;;
55913;SDS011;58179;48.776;9.124;2023-12-14T10:32:40;17.88;;;10.13;;
55913;SDS011;58179;48.776;9.124;2023-12-14T10:35:06;19.10;;;9.23;;
55913;SDS011;58179;48.776;9.124;2023-12-14T10:37:35;18.17;;;9.73;;
55913;SDS011;58179;48.776;9.124;2023-12-14T10:40:05;14.47;;;9.03;;
55913;SDS011;58179;48.776;9.124;2023-12-14T10:42:32;11.05;;;7.25;;
55913;SDS011;58179;48.776;9.124;2023-12-14T10:45:01;16.92;;;8.07;;
55913;SDS011;58179;48.776;9.124;2023-12-14T10:47:29;11.57;;;7.50;;
55913;SDS011;58179;48.776;9.124;2023-12-14T10:49:56;14.63;;;7.68;;
55913;SDS011;58179;48.776;9.124;2023-12-14T10:52:25;12.05;;;7.05;;
55913;SDS011;58179;48.776;9.124;2023-12-14T10:54:53;9.50;;;6.37;;
55913;SDS011;58179;48.776;9.124;2023-12-14T10:57:25;9.60;;;6.10;;
55913;SDS011;58179;48.776;9.124;2023-12-14T10:59:55;9.85;;;6.63;;
55913;SDS011;58179;48.776;9.124;2023-12-14T11:02:24;11.75;;;7.47;;
55913;SDS011;58179;48.776;9.124;2023-12-14T11:04:53;14.32;;;7.93;;
55913;SDS011;58179;48.776;9.124;2023-12-14T11:10:11;12.17;;;7.60;;
55913;SDS011;58179;48.776;9.124;2023-12-14T11:12:37;19.00;;;8.70;;
55913;SDS011;58179;48.776;9.124;2023-12-14T11:15:16;15.15;;;8.20;;
55913;SDS011;58179;48.776;9.124;2023-12-14T11:17:43;10.50;;;7.05;;
55913;SDS011;58179;48.776;9.124;2023-12-14T11:20:46;7.65;;;5.22;;
55913;SDS011;58179;48.776;9.124;2023-12-14T11:23:14;7.25;;;4.72;;
55913;SDS011;58179;48.776;9.124;2023-12-14T11:25:48;6.60;;;4.70;;
55913;SDS011;58179;48.776;9.124;2023-12-14T11:28:17;6.43;;;4.72;;
55913;SDS011;58179;48.776;9.124;2023-12-14T11:30:43;8.35;;;4.72;;
55913;SDS011;58179;48.776;9.124;2023-12-14T11:33:10;9.65;;;5.55;;
55913;SDS011;58179;48.776;9.124;2023-12-14T11:35:37;12.73;;;6.53;;
55913;SDS011;58179;48.776;9.124;2023-12-14T11:38:03;13.02;;;6.30;;
55913;SDS011;58179;48.776;9.124;2023-12-14T11:40:35;8.30;;;5.72;;
55913;SDS011;58179;48.776;9.124;2023-12-14T11:43:03;14.02;;;6.55;;
55913;SDS011;58179;48.776;9.124;2023-12-14T11:45:33;7.97;;;5.50;;
55913;SDS011;58179;48.776;9.124;2023-12-14T11:47:59;12.23;;;6.40;;
55913;SDS011;58179;48.776;9.124;2023-12-14T11:50:29;17.13;;;7.68;;
55913;SDS011;58179;48.776;9.124;2023-12-14T11:52:55;11.52;;;6.72;;
55913;SDS011;58179;48.776;9.124;2023-12-14T11:55:22;12.30;;;6.30;;
55913;SDS011;58179;48.776;9.124;2023-12-14T11:57:48;11.20;;;5.68;;
55913;SDS011;58179;48.776;9.124;2023-12-14T12:00:18;6.75;;;4.20;;
55913;SDS011;58179;48.776;9.124;2023-12-14T12:02:48;4.47;;;3.60;;
55913;SDS011;58179;48.776;9.124;2023-12-14T12:05:14;3.28;;;2.97;;
55913;SDS011;58179;48.776;9.124;2023-12-14T12:07:44;2.55;;;2.35;;
55913;SDS011;58179;48.776;9.124;2023-12-14T12:10:11;2.35;;;2.15;;
55913;SDS011;58179;48.776;9.124;2023-12-14T12:12:37;3.60;;;2.20;;
55913;SDS011;58179;48.776;9.124;2023-12-14T12:15:04;2.20;;;2.00;;
55913;SDS011;58179;48.776;9.124;2023-12-14T12:17:32;4.13;;;2.30;;
55913;SDS011;58179;48.776;9.124;2023-12-14T12:20:02;2.47;;;2.28;;
55913;SDS011;58179;48.776;9.124;2023-12-14T12:22:29;6.18;;;2.60;;
55913;SDS011;58179;48.776;9.124;2023-12-14T12:24:55;3.03;;;2.10;;
55913;SDS011;58179;48.776;9.124;2023-12-14T12:27:23;4.30;;;2.85;;
55913;SDS011;58179;48.776;9.124;2023-12-14T12:29:49;5.78;;;2.70;;
55913;SDS011;58179;48.776;9.124;2023-12-14T12:32:18;11.17;;;4.00;;
55913;SDS011;58179;48.776;9.124;2023-12-14T12:34:46;11.98;;;4.75;;
55913;SDS011;58179;48.776;9.124;2023-12-14T12:37:12;9.32;;;4.90;;
55913;SDS011;58179;48.776;9.124;2023-12-14T12:39:38;11.47;;;5.10;;
55913;SDS011;58179;48.776;9.124;2023-12-14T12:42:05;12.23;;;5.38;;
55913;SDS011;58179;48.776;9.124;2023-12-14T12:44:32;14.52;;;5.60;;
55913;SDS011;58179;48.776;9.124;2023-12-14T12:46:58;19.98;;;6.30;;
55913;SDS011;58179;48.776;9.124;2023-12-14T12:49:24;16.58;;;6.20;;
55913;SDS011;58179;48.776;9.124;2023-12-14T12:51:51;14.73;;;6.63;;
55913;SDS011;58179;48.776;9.124;2023-12-14T12:54:18;16.58;;;6.68;;
55913;SDS011;58179;48.776;9.124;2023-12-14T12:56:44;13.90;;;6.03;;
55913;SDS011;58179;48.776;9.124;2023-12-14T12:59:12;12.87;;;5.80;;
55913;SDS011;58179;48.776;9.124;2023-12-14T13:01:39;11.82;;;5.50;;
55913;SDS011;58179;48.776;9.124;2023-12-14T13:04:05;13.05;;;5.30;;
55913;SDS011;58179;48.776;9.124;2023-12-14T13:06:43;10.27;;;4.57;;
55913;SDS011;58179;48.776;9.124;2023-12-14T13:09:11;17.15;;;6.57;;
55913;SDS011;58179;48.776;9.124;2023-12-14T13:11:37;15.48;;;5.75;;
55913;SDS011;58179;48.776;9.124;2023-12-14T13:14:03;14.80;;;5.50;;
55913;SDS011;58179;48.776;9.124;2023-12-14T13:16:32;10.20;;;4.63;;
55913;SDS011;58179;48.776;9.124;2023-12-14T13:18:59;12.65;;;5.25;;
55913;SDS011;58179;48.776;9.124;2023-12-14T13:21:25;13.67;;;5.17;;
55913;SDS011;58179;48.776;9.124;2023-12-14T13:23:51;11.25;;;4.88;;
55913;SDS011;58179;48.776;9.124;2023-12-14T13:26:19;12.70;;;5.35;;
55913;SDS011;58179;48.776;9.124;2023-12-14T13:28:45;13.63;;;5.30;;
55913;SDS011;58179;48.776;9.124;2023-12-14T13:31:11;12.97;;;5.10;;
55913;SDS011;58179;48.776;9.124;2023-12-14T13:33:37;13.50;;;5.28;;
55913;SDS011;58179;48.776;9.124;2023-12-14T13:36:04;11.03;;;4.83;;
55913;SDS011;58179;48.776;9.124;2023-12-14T13:38:30;11.35;;;4.80;;
55913;SDS011;58179;48.776;9.124;2023-12-14T13:40:58;9.70;;;4.45;;
55913;SDS011;58179;48.776;9.124;2023-12-14T13:43:26;12.93;;;4.72;;
55913;SDS011;58179;48.776;9.124;2023-12-14T13:45:52;9.93;;;4.23;;
55913;SDS011;58179;48.776;9.124;2023-12-14T13:48:22;8.88;;;4.18;;
55913;SDS011;58179;48.776;9.124;2023-12-14T13:50:48;18.57;;;7.67;;
55913;SDS011;58179;48.776;9.124;2023-12-14T13:53:14;18.55;;;7.82;;
55913;SDS011;58179;48.776;9.124;2023-12-14T13:55:41;15.82;;;7.00;;
55913;SDS011;58179;48.776;9.124;2023-12-14T13:58:07;16.63;;;6.63;;
55913;SDS011;58179;48.776;9.124;2023-12-14T14:00:34;26.13;;;9.73;;
55913;SDS011;58179;48.776;9.124;2023-12-14T14:03:01;25.75;;;9.15;;
55913;SDS011;58179;48.776;9.124;2023-12-14T14:05:28;46.60;;;14.15;;
55913;SDS011;58179;48.776;9.124;2023-12-14T14:07:54;44.55;;;13.80;;
55913;SDS011;58179;48.776;9.124;2023-12-14T14:10:21;47.65;;;14.18;;
55913;SDS011;58179;48.776;9.124;2023-12-14T14:12:47;38.03;;;12.48;;
55913;SDS011;58179;48.776;9.124;2023-12-14T14:15:14;35.10;;;12.10;;
55913;SDS011;58179;48.776;9.124;2023-12-14T14:17:41;31.63;;;11.30;;
55913;SDS011;58179;48.776;9.124;2023-12-14T14:20:09;28.92;;;10.00;;
55913;SDS011;58179;48.776;9.124;2023-12-14T14:22:36;31.13;;;10.35;;
55913;SDS011;58179;48.776;9.124;2023-12-14T14:25:04;31.38;;;10.43;;
55913;SDS011;58179;48.776;9.124;2023-12-14T14:27:34;49.95;;;13.02;;
55913;SDS011;58179;48.776;9.124;2023-12-14T14:30:00;39.97;;;12.38;;
55913;SDS011;58179;48.776;9.124;2023-12-14T14:32:27;36.77;;;11.37;;
55913;SDS011;58179;48.776;9.124;2023-12-14T14:34:54;45.33;;;14.15;;